createdAt,value
2022-09-20T00:01:08.210Z,2.63
2022-09-20T00:03:11.530Z,3.53
2022-09-20T00:05:13.288Z,3.97
2022-09-20T00:07:17.606Z,3.13
2022-09-20T00:09:19.286Z,4.00
2022-09-20T00:11:23.146Z,3.37
2022-09-20T00:13:24.823Z,2.23
2022-09-20T00:15:26.469Z,3.97
2022-09-20T00:17:30.232Z,2.50
2022-09-20T00:19:31.920Z,2.03
2022-09-20T00:21:37.725Z,5.00
2022-09-20T00:23:39.415Z,2.53
2022-09-20T00:25:44.250Z,2.30
2022-09-20T00:27:46.266Z,3.43
2022-09-20T00:29:47.928Z,4.10
2022-09-20T00:31:49.938Z,4.17
2022-09-20T00:34:13.500Z,2.33
2022-09-20T00:36:16.007Z,3.10
2022-09-20T00:38:20.073Z,3.93
2022-09-20T00:40:23.769Z,5.13
2022-09-20T00:42:32.581Z,2.97
2022-09-20T00:44:53.608Z,2.33
2022-09-20T00:46:56.019Z,4.00
2022-09-20T00:49:07.532Z,3.93
2022-09-20T00:51:13.657Z,3.80
2022-09-20T00:53:36.599Z,4.63
2022-09-20T00:55:43.078Z,4.30
2022-09-20T00:57:45.810Z,3.53
2022-09-20T00:59:52.939Z,3.93
2022-09-20T01:02:03.632Z,3.07
2022-09-20T01:04:05.725Z,3.33
2022-09-20T01:06:11.293Z,3.57
2022-09-20T01:08:15.630Z,3.03
2022-09-20T01:10:19.688Z,2.23
2022-09-20T01:12:26.142Z,4.50
2022-09-20T01:14:27.833Z,3.77
2022-09-20T01:16:31.498Z,3.23
2022-09-20T01:18:34.766Z,2.90
2022-09-20T01:20:42.104Z,2.83
2022-09-20T01:23:08.190Z,3.53
2022-09-20T01:25:30.381Z,3.53
2022-09-20T01:27:43.150Z,4.07
2022-09-20T01:29:56.351Z,3.80
2022-09-20T01:32:03.359Z,3.27
2022-09-20T01:34:12.117Z,3.53
2022-09-20T01:36:28.151Z,3.43
2022-09-20T01:38:53.172Z,5.33
2022-09-20T01:41:20.635Z,4.30
2022-09-20T01:43:34.271Z,4.23
2022-09-20T01:45:46.574Z,4.10
2022-09-20T01:48:22.707Z,3.80
2022-09-20T01:50:42.075Z,3.50
2022-09-20T01:53:30.147Z,5.87
2022-09-20T01:55:51.250Z,3.67
2022-09-20T01:58:22.559Z,3.53
2022-09-20T02:00:29.805Z,3.17
2022-09-20T02:02:58.975Z,3.47
2022-09-20T02:05:44.610Z,3.57
2022-09-20T02:08:23.395Z,3.33
2022-09-20T02:10:49.540Z,3.00
2022-09-20T02:13:03.988Z,3.17
2022-09-20T02:15:32.446Z,3.10
2022-09-20T02:17:34.073Z,4.73
2022-09-20T02:19:50.856Z,4.57
2022-09-20T02:22:04.192Z,5.10
2022-09-20T02:24:23.133Z,4.07
2022-09-20T02:26:39.958Z,4.87
2022-09-20T02:29:17.403Z,4.67
2022-09-20T02:31:49.938Z,5.20
2022-09-20T02:34:03.544Z,5.70
2022-09-20T02:36:38.852Z,4.17
2022-09-20T02:38:49.209Z,5.30
2022-09-20T02:41:08.116Z,4.53
2022-09-20T02:43:18.754Z,3.40
2022-09-20T02:45:47.649Z,3.50
2022-09-20T02:47:56.425Z,5.80
2022-09-20T02:50:19.870Z,4.77
2022-09-20T02:52:46.214Z,4.30
2022-09-20T02:55:17.829Z,5.43
2022-09-20T02:58:00.386Z,5.07
2022-09-20T03:00:34.164Z,2.83
2022-09-20T03:03:02.830Z,3.37
2022-09-20T03:05:28.007Z,3.83
2022-09-20T03:07:55.439Z,5.43
2022-09-20T03:10:15.540Z,6.03
2022-09-20T03:12:39.196Z,4.33
2022-09-20T03:14:44.505Z,6.50
2022-09-20T03:17:02.163Z,3.27
2022-09-20T03:19:15.946Z,3.43
2022-09-20T03:21:27.977Z,4.33
2022-09-20T03:23:53.062Z,4.80
2022-09-20T03:26:09.860Z,3.90
2022-09-20T03:28:36.555Z,4.17
2022-09-20T03:31:05.155Z,4.13
2022-09-20T03:33:16.058Z,4.30
2022-09-20T03:35:45.778Z,4.83
2022-09-20T03:38:05.978Z,3.67
2022-09-20T03:40:20.372Z,6.00
2022-09-20T03:42:33.320Z,5.03
2022-09-20T03:44:49.118Z,5.47
2022-09-20T03:47:16.181Z,2.67
2022-09-20T03:49:51.038Z,3.93
2022-09-20T03:52:14.205Z,4.83
2022-09-20T03:54:39.049Z,5.87
2022-09-20T03:56:46.517Z,3.73
2022-09-20T03:58:59.876Z,3.63
2022-09-20T04:01:08.442Z,3.73
2022-09-20T04:03:25.176Z,4.23
2022-09-20T04:05:58.650Z,4.50
2022-09-20T04:08:18.900Z,5.80
2022-09-20T04:10:59.725Z,6.57
2022-09-20T04:13:24.810Z,4.97
2022-09-20T04:15:40.213Z,3.80
2022-09-20T04:18:05.402Z,3.87
2022-09-20T04:20:46.378Z,3.23
2022-09-20T04:22:53.638Z,3.57
2022-09-20T04:25:13.278Z,4.27
2022-09-20T04:27:29.935Z,2.70
2022-09-20T04:29:53.009Z,2.57
2022-09-20T04:32:09.001Z,2.77
2022-09-20T04:34:50.045Z,4.00
2022-09-20T04:36:58.715Z,2.80
2022-09-20T04:39:12.317Z,3.07
2022-09-20T04:41:52.524Z,2.57
2022-09-20T04:44:27.650Z,3.43
2022-09-20T04:47:05.873Z,3.07
2022-09-20T04:49:53.728Z,3.70
2022-09-20T04:52:26.868Z,2.17
2022-09-20T04:55:33.072Z,3.47
2022-09-20T04:57:44.205Z,2.40
2022-09-20T05:00:08.416Z,3.20
2022-09-20T05:02:27.799Z,2.57
2022-09-20T05:04:43.022Z,4.03
2022-09-20T05:07:07.178Z,3.17
2022-09-20T05:09:45.913Z,3.07
2022-09-20T05:12:31.171Z,8.77
2022-09-20T05:14:57.046Z,3.80
2022-09-20T05:17:20.518Z,4.83
2022-09-20T05:19:46.114Z,3.07
2022-09-20T05:22:08.827Z,3.83
2022-09-20T05:24:24.914Z,5.50
2022-09-20T05:26:51.824Z,3.23
2022-09-20T05:28:57.087Z,4.77
2022-09-20T05:31:22.266Z,4.00
2022-09-20T05:33:54.394Z,3.63
2022-09-20T05:36:02.214Z,5.03
2022-09-20T05:38:37.457Z,4.93
2022-09-20T05:40:45.060Z,3.60
2022-09-20T05:43:02.246Z,3.90
2022-09-20T05:45:41.222Z,3.57
2022-09-20T05:48:13.863Z,3.40
2022-09-20T05:50:39.275Z,4.73
2022-09-20T05:52:49.947Z,6.63
2022-09-20T05:55:14.016Z,5.53
2022-09-20T05:57:45.854Z,3.60
2022-09-20T06:00:20.354Z,5.87
2022-09-20T06:02:34.770Z,3.07
2022-09-20T06:04:45.173Z,4.53
2022-09-20T06:07:02.353Z,5.90
2022-09-20T06:09:25.565Z,4.53
2022-09-20T06:11:52.097Z,5.30
2022-09-20T06:14:27.445Z,4.33
2022-09-20T06:16:46.782Z,3.23
2022-09-20T06:19:17.044Z,4.50
2022-09-20T06:21:42.766Z,5.80
2022-09-20T06:23:44.920Z,5.70
2022-09-20T06:25:49.669Z,5.47
2022-09-20T06:27:58.422Z,7.53
2022-09-20T06:30:05.665Z,5.83
2022-09-20T06:32:08.099Z,5.23
2022-09-20T06:34:13.234Z,7.63
2022-09-20T06:36:40.182Z,5.43
2022-09-20T06:39:15.604Z,5.53
2022-09-20T06:41:30.571Z,5.40
2022-09-20T06:43:37.695Z,3.93
2022-09-20T06:45:40.900Z,5.90
2022-09-20T06:47:43.261Z,6.07
2022-09-20T06:49:46.668Z,5.63
2022-09-20T06:51:50.740Z,5.53
2022-09-20T06:53:53.851Z,4.83
2022-09-20T06:55:58.561Z,5.97
2022-09-20T06:58:00.724Z,5.43
2022-09-20T07:00:02.605Z,4.73
2022-09-20T07:02:05.284Z,5.43
2022-09-20T07:04:07.539Z,4.30
2022-09-20T07:06:12.138Z,7.20
2022-09-20T07:08:13.841Z,6.00
2022-09-20T07:10:15.941Z,4.37
2022-09-20T07:12:18.100Z,10.13
2022-09-20T07:14:19.741Z,4.80
2022-09-20T07:16:22.177Z,4.90
2022-09-20T07:18:23.871Z,4.43
2022-09-20T07:20:26.199Z,5.17
2022-09-20T07:22:28.118Z,6.80
2022-09-20T07:24:32.157Z,6.10
2022-09-20T07:26:33.966Z,4.30
2022-09-20T07:28:35.854Z,5.33
2022-09-20T07:30:39.020Z,7.30
2022-09-20T07:32:41.001Z,7.23
2022-09-20T07:34:44.129Z,4.63
2022-09-20T07:36:47.203Z,4.83
2022-09-20T07:38:54.785Z,7.50
2022-09-20T07:41:02.114Z,7.23
2022-09-20T07:43:03.840Z,6.10
2022-09-20T07:45:08.754Z,5.57
2022-09-20T07:47:11.167Z,5.70
2022-09-20T07:49:12.808Z,5.80
2022-09-20T07:51:14.447Z,6.90
2022-09-20T07:53:17.380Z,4.40
2022-09-20T07:55:19.204Z,6.43
2022-09-20T07:57:23.925Z,6.87
2022-09-20T07:59:27.520Z,6.67
2022-09-20T08:01:50.970Z,5.07
2022-09-20T08:03:56.101Z,4.83
2022-09-20T08:06:02.742Z,6.27
2022-09-20T08:08:04.481Z,5.60
2022-09-20T08:10:06.549Z,6.67
2022-09-20T08:14:30.681Z,5.30
2022-09-20T08:16:36.631Z,6.03
2022-09-20T08:18:57.571Z,6.47
2022-09-20T08:21:07.142Z,4.43
2022-09-20T08:23:22.919Z,6.03
2022-09-20T08:25:25.618Z,4.47
2022-09-20T08:27:27.328Z,3.40
2022-09-20T08:29:29.044Z,4.07
2022-09-20T08:31:35.324Z,3.40
2022-09-20T08:33:38.068Z,3.77
2022-09-20T08:35:42.291Z,3.80
2022-09-20T08:37:47.331Z,2.83
2022-09-20T08:39:57.750Z,5.40
2022-09-20T08:42:44.804Z,4.07
2022-09-20T08:45:00.033Z,4.33
2022-09-20T08:47:15.926Z,2.57
2022-09-20T08:49:28.124Z,3.00
2022-09-20T08:51:37.533Z,3.37
2022-09-20T08:53:49.244Z,3.33
2022-09-20T08:55:54.123Z,5.17
2022-09-20T08:57:57.988Z,4.37
2022-09-20T09:00:02.571Z,3.80
2022-09-20T09:02:18.164Z,3.73
2022-09-20T09:04:28.538Z,4.73
2022-09-20T09:06:30.440Z,4.47
2022-09-20T09:08:37.923Z,4.40
2022-09-20T09:11:08.387Z,5.17
2022-09-20T09:13:25.397Z,3.80
2022-09-20T09:15:33.249Z,3.83
2022-09-20T09:17:35.145Z,4.00
2022-09-20T09:19:47.116Z,4.03
2022-09-20T09:21:48.765Z,3.63
2022-09-20T09:23:57.785Z,3.50
2022-09-20T09:26:05.192Z,3.30
2022-09-20T09:28:07.176Z,5.07
2022-09-20T09:30:24.265Z,3.90
2022-09-20T09:32:32.384Z,3.50
2022-09-20T09:34:38.652Z,3.03
2022-09-20T09:36:46.551Z,2.30
2022-09-20T09:38:48.469Z,2.50
2022-09-20T09:41:01.697Z,2.47
2022-09-20T09:43:03.988Z,2.93
2022-09-20T09:45:13.615Z,3.57
2022-09-20T09:47:28.701Z,3.07
2022-09-20T09:49:35.770Z,4.27
2022-09-20T09:51:38.930Z,2.97
2022-09-20T09:53:41.617Z,2.80
2022-09-20T09:56:13.363Z,2.33
2022-09-20T09:58:20.682Z,2.53
2022-09-20T10:00:27.324Z,3.83
2022-09-20T10:02:48.076Z,3.27
2022-09-20T10:05:05.910Z,3.10
2022-09-20T10:07:19.538Z,3.77
2022-09-20T10:09:45.918Z,1.70
2022-09-20T10:11:58.692Z,2.33
2022-09-20T10:14:10.446Z,1.93
2022-09-20T10:16:53.414Z,2.63
2022-09-20T10:19:10.450Z,1.70
2022-09-20T10:22:08.811Z,1.57
2022-09-20T10:24:30.951Z,1.40
2022-09-20T10:27:13.375Z,1.40
2022-09-20T10:29:39.724Z,1.33
2022-09-20T10:31:56.157Z,1.53
2022-09-20T10:34:38.096Z,1.57
2022-09-20T10:36:45.416Z,1.60
2022-09-20T10:38:50.924Z,1.50
2022-09-20T10:41:31.430Z,1.80
2022-09-20T10:44:07.202Z,3.63
2022-09-20T10:46:34.580Z,1.40
2022-09-20T10:48:47.887Z,1.43
2022-09-20T10:51:03.370Z,1.63
2022-09-20T10:53:31.644Z,2.13
2022-09-20T10:55:57.505Z,1.43
2022-09-20T10:58:07.761Z,1.10
2022-09-20T11:00:21.188Z,1.97
2022-09-20T11:02:55.206Z,1.90
2022-09-20T11:05:16.172Z,2.20
2022-09-20T11:07:26.461Z,2.43
2022-09-20T11:09:34.685Z,2.57
2022-09-20T11:11:46.532Z,1.43
2022-09-20T11:14:06.550Z,1.90
2022-09-20T11:16:17.972Z,2.30
2022-09-20T11:18:34.512Z,1.50
2022-09-20T11:20:44.027Z,2.50
2022-09-20T11:23:11.799Z,3.33
2022-09-20T11:25:26.064Z,3.17
2022-09-20T11:27:38.419Z,2.00
2022-09-20T11:29:48.033Z,2.13
2022-09-20T11:31:54.613Z,2.03
2022-09-20T11:34:27.026Z,1.93
2022-09-20T11:36:57.242Z,1.93
2022-09-20T11:39:12.612Z,2.10
2022-09-20T11:41:28.035Z,2.40
2022-09-20T11:43:31.088Z,2.97
2022-09-20T11:45:37.200Z,3.37
2022-09-20T11:48:01.228Z,3.20
2022-09-20T11:50:17.999Z,2.30
2022-09-20T11:52:30.164Z,3.47
2022-09-20T11:54:35.488Z,3.03
2022-09-20T11:56:40.600Z,2.90
2022-09-20T11:58:48.919Z,2.53
2022-09-20T12:00:54.447Z,2.30
2022-09-20T12:02:56.423Z,2.30
2022-09-20T12:04:59.043Z,2.43
2022-09-20T12:07:11.474Z,2.67
2022-09-20T12:09:31.394Z,2.70
2022-09-20T12:11:38.722Z,2.53
2022-09-20T12:13:53.391Z,2.10
2022-09-20T12:16:20.050Z,3.00
2022-09-20T12:18:33.803Z,2.10
2022-09-20T12:20:35.468Z,2.63
2022-09-20T12:22:39.880Z,3.20
2022-09-20T12:24:45.333Z,3.00
2022-09-20T12:26:48.372Z,2.07
2022-09-20T12:29:01.764Z,1.60
2022-09-20T12:31:21.587Z,3.47
2022-09-20T12:34:02.364Z,2.43
2022-09-20T12:36:17.001Z,3.83
2022-09-20T12:38:21.693Z,1.93
2022-09-20T12:40:25.906Z,1.57
2022-09-20T12:42:33.201Z,1.47
2022-09-20T12:44:49.155Z,2.30
2022-09-20T12:46:57.541Z,1.80
2022-09-20T12:49:42.417Z,2.40
2022-09-20T12:52:12.141Z,1.77
2022-09-20T12:54:13.975Z,1.50
2022-09-20T12:56:27.874Z,1.43
2022-09-20T12:58:45.016Z,1.77
2022-09-20T13:00:57.222Z,2.10
2022-09-20T13:03:00.708Z,2.27
2022-09-20T13:05:02.445Z,1.23
2022-09-20T13:07:33.221Z,1.60
2022-09-20T13:09:35.054Z,1.40
2022-09-20T13:11:56.005Z,1.70
2022-09-20T13:14:06.083Z,2.20
2022-09-20T13:16:20.049Z,1.70
2022-09-20T13:18:24.993Z,1.77
2022-09-20T13:20:34.606Z,2.10
2022-09-20T13:22:43.395Z,2.13
2022-09-20T13:24:50.334Z,1.97
2022-09-20T13:26:55.790Z,3.20
2022-09-20T13:28:59.086Z,1.80
2022-09-20T13:31:39.316Z,1.93
2022-09-20T13:33:40.976Z,1.93
2022-09-20T13:35:47.223Z,2.90
2022-09-20T13:37:55.900Z,5.37
2022-09-20T13:39:58.530Z,1.87
2022-09-20T13:42:03.589Z,2.37
2022-09-20T13:44:05.305Z,1.67
2022-09-20T13:46:13.399Z,1.93
2022-09-20T13:48:16.716Z,2.53
2022-09-20T13:50:23.414Z,1.70
2022-09-20T13:52:31.109Z,1.87
2022-09-20T13:54:35.961Z,1.83
2022-09-20T13:56:40.713Z,1.53
2022-09-20T13:58:44.488Z,1.70
2022-09-20T14:00:57.792Z,1.53
2022-09-20T14:02:59.515Z,1.20
2022-09-20T14:05:04.477Z,2.07
2022-09-20T14:07:07.968Z,1.03
2022-09-20T14:09:26.490Z,2.90
2022-09-20T14:11:33.650Z,1.43
2022-09-20T14:13:42.070Z,2.87
2022-09-20T14:15:46.314Z,3.03
2022-09-20T14:17:48.949Z,2.60
2022-09-20T14:19:54.367Z,1.97
2022-09-20T14:21:57.590Z,2.23
2022-09-20T14:24:05.570Z,1.50
2022-09-20T14:26:16.138Z,1.20
2022-09-20T14:28:19.645Z,2.67
2022-09-20T14:30:31.300Z,2.23
2022-09-20T14:32:37.918Z,1.97
2022-09-20T14:34:41.304Z,3.47
2022-09-20T14:36:43.368Z,1.40
2022-09-20T14:38:47.457Z,2.77
2022-09-20T14:40:49.892Z,2.10
2022-09-20T14:43:31.241Z,2.27
2022-09-20T14:45:38.917Z,3.57
2022-09-20T14:48:10.673Z,3.10
2022-09-20T14:50:24.280Z,2.40
2022-09-20T14:52:29.541Z,1.80
2022-09-20T14:54:33.541Z,2.13
2022-09-20T14:56:41.037Z,2.27
2022-09-20T14:59:03.718Z,1.93
2022-09-20T15:01:24.271Z,3.37
2022-09-20T15:03:37.736Z,2.20
2022-09-20T15:05:39.653Z,2.13
2022-09-20T15:07:41.602Z,2.60
2022-09-20T15:09:43.750Z,2.67
2022-09-20T15:11:45.388Z,1.90
2022-09-20T15:13:47.070Z,2.37
2022-09-20T15:15:52.073Z,2.07
2022-09-20T15:17:54.414Z,2.27
2022-09-20T15:19:57.224Z,1.90
2022-09-20T15:22:00.818Z,2.60
2022-09-20T15:24:02.477Z,2.70
2022-09-20T15:26:04.844Z,3.13
2022-09-20T15:28:07.718Z,1.87
2022-09-20T15:30:18.535Z,2.37
2022-09-20T15:32:22.320Z,2.77
2022-09-20T15:34:26.081Z,2.43
2022-09-20T15:36:31.755Z,2.47
2022-09-20T15:38:36.973Z,2.37
2022-09-20T15:40:42.979Z,2.43
2022-09-20T15:42:45.815Z,2.13
2022-09-20T15:44:53.212Z,1.87
2022-09-20T15:46:55.092Z,1.93
2022-09-20T15:49:02.462Z,2.33
2022-09-20T15:51:06.686Z,3.53
2022-09-20T15:53:08.362Z,2.43
2022-09-20T15:55:10.703Z,2.20
2022-09-20T15:57:14.725Z,2.70
2022-09-20T15:59:17.182Z,1.93
2022-09-20T16:01:19.512Z,2.93
2022-09-20T16:03:29.945Z,2.00
2022-09-20T16:05:31.620Z,3.23
2022-09-20T16:07:33.340Z,2.73
2022-09-20T16:09:35.943Z,2.23
2022-09-20T16:11:38.739Z,1.73
2022-09-20T16:13:41.601Z,2.73
2022-09-20T16:15:44.171Z,2.13
2022-09-20T16:18:04.579Z,2.47
2022-09-20T16:20:09.357Z,1.53
2022-09-20T16:22:12.477Z,3.47
2022-09-20T16:24:14.310Z,2.23
2022-09-20T16:26:16.845Z,2.77
2022-09-20T16:28:21.119Z,3.13
2022-09-20T16:30:22.957Z,2.07
2022-09-20T16:32:24.597Z,4.23
2022-09-20T16:34:32.434Z,2.23
2022-09-20T16:36:34.721Z,2.40
2022-09-20T16:38:39.241Z,1.63
2022-09-20T16:40:42.322Z,2.67
2022-09-20T16:42:52.091Z,1.93
2022-09-20T16:44:54.381Z,2.50
2022-09-20T16:46:56.056Z,2.23
2022-09-20T16:49:00.713Z,2.20
2022-09-20T16:51:02.469Z,2.80
2022-09-20T16:53:04.506Z,3.30
2022-09-20T16:55:11.816Z,2.17
2022-09-20T16:57:16.644Z,2.07
2022-09-20T16:59:24.095Z,2.00
2022-09-20T17:01:25.848Z,3.60
2022-09-20T17:03:28.598Z,2.13
2022-09-20T17:05:30.206Z,2.67
2022-09-20T17:07:34.369Z,2.27
2022-09-20T17:09:36.116Z,2.40
2022-09-20T17:11:40.516Z,1.80
2022-09-20T17:13:44.923Z,2.67
2022-09-20T17:15:49.909Z,1.90
2022-09-20T17:17:51.607Z,2.70
2022-09-20T17:19:56.710Z,1.90
2022-09-20T17:21:59.326Z,3.73
2022-09-20T17:24:01.603Z,3.37
2022-09-20T17:26:09.090Z,4.13
2022-09-20T17:28:14.621Z,2.17
2022-09-20T17:30:19.484Z,2.60
2022-09-20T17:32:22.979Z,1.93
2022-09-20T17:34:27.960Z,2.90
2022-09-20T17:36:41.561Z,3.37
2022-09-20T17:38:43.329Z,3.27
2022-09-20T17:40:45.986Z,4.33
2022-09-20T17:42:48.611Z,1.80
2022-09-20T17:44:50.468Z,3.77
2022-09-20T17:46:55.438Z,2.40
2022-09-20T17:49:02.584Z,3.00
2022-09-20T17:51:08.143Z,2.23
2022-09-20T17:53:14.493Z,5.00
2022-09-20T17:55:22.053Z,2.33
2022-09-20T17:57:27.118Z,2.00
2022-09-20T17:59:31.369Z,2.43
2022-09-20T18:01:34.973Z,3.03
2022-09-20T18:03:45.913Z,2.20
2022-09-20T18:05:48.621Z,2.60
2022-09-20T18:07:52.013Z,3.27
2022-09-20T18:09:54.131Z,2.13
2022-09-20T18:11:58.126Z,1.90
2022-09-20T18:14:02.678Z,3.27
2022-09-20T18:16:11.119Z,3.17
2022-09-20T18:18:12.991Z,1.87
2022-09-20T18:20:20.129Z,3.57
2022-09-20T18:22:21.819Z,3.10
2022-09-20T18:24:23.584Z,2.40
2022-09-20T18:26:27.983Z,3.53
2022-09-20T18:28:29.615Z,2.23
2022-09-20T18:30:32.049Z,3.17
2022-09-20T18:32:33.820Z,2.60
2022-09-20T18:34:38.367Z,3.03
2022-09-20T18:36:40.073Z,3.13
2022-09-20T18:38:45.403Z,4.13
2022-09-20T18:40:55.616Z,2.07
2022-09-20T18:43:04.558Z,4.10
2022-09-20T18:45:07.225Z,3.07
2022-09-20T18:47:09.121Z,4.67
2022-09-20T18:49:14.978Z,1.90
2022-09-20T18:51:16.890Z,4.87
2022-09-20T18:53:20.890Z,2.83
2022-09-20T18:55:24.350Z,2.73
2022-09-20T18:57:28.423Z,2.93
2022-09-20T18:59:30.521Z,2.90
2022-09-20T19:01:53.278Z,4.50
2022-09-20T19:04:03.889Z,1.90
2022-09-20T19:06:09.309Z,2.23
2022-09-20T19:08:35.398Z,1.97
2022-09-20T19:10:46.564Z,2.47
2022-09-20T19:13:11.938Z,3.30
2022-09-20T19:15:46.965Z,3.23
2022-09-20T19:18:24.068Z,4.13
2022-09-20T19:20:34.707Z,3.90
2022-09-20T19:23:01.654Z,5.50
2022-09-20T19:25:16.104Z,5.07
2022-09-20T19:27:17.991Z,6.70
2022-09-20T19:29:25.135Z,7.40
2022-09-20T19:31:37.620Z,7.63
2022-09-20T19:33:40.150Z,7.33
2022-09-20T19:35:49.301Z,7.50
2022-09-20T19:38:00.393Z,6.10
2022-09-20T19:40:37.968Z,5.40
2022-09-20T19:43:03.052Z,6.37
2022-09-20T19:45:29.177Z,4.50
2022-09-20T19:47:51.916Z,4.47
2022-09-20T19:49:55.203Z,4.37
2022-09-20T19:51:57.801Z,3.93
2022-09-20T19:53:59.543Z,3.47
2022-09-20T19:56:20.555Z,2.80
2022-09-20T19:58:23.436Z,3.03
2022-09-20T20:00:25.426Z,4.60
2022-09-20T20:02:27.371Z,3.73
2022-09-20T20:04:29.409Z,3.53
2022-09-20T20:06:43.364Z,3.63
2022-09-20T20:09:22.923Z,4.53
2022-09-20T20:11:59.137Z,3.43
2022-09-20T20:14:07.676Z,2.80
2022-09-20T20:16:16.154Z,4.40
2022-09-20T20:18:36.442Z,3.40
2022-09-20T20:20:44.006Z,2.40
2022-09-20T20:22:58.420Z,4.20
2022-09-20T20:25:01.642Z,3.70
2022-09-20T20:27:04.015Z,3.13
2022-09-20T20:29:05.718Z,2.67
2022-09-20T20:31:12.268Z,4.87
2022-09-20T20:33:20.722Z,2.77
2022-09-20T20:35:22.831Z,2.87
2022-09-20T20:37:26.182Z,8.27
2022-09-20T20:39:29.662Z,2.90
2022-09-20T20:41:31.774Z,3.93
2022-09-20T20:43:38.040Z,2.73
2022-09-20T20:45:39.991Z,2.60
2022-09-20T20:47:43.953Z,4.53
2022-09-20T20:49:50.755Z,2.30
2022-09-20T20:51:56.017Z,2.97
2022-09-20T20:53:59.462Z,3.90
2022-09-20T20:56:07.300Z,2.70
2022-09-20T20:58:10.355Z,3.00
2022-09-20T21:00:12.529Z,3.20
2022-09-20T21:02:16.399Z,3.53
2022-09-20T21:04:18.494Z,3.93
2022-09-20T21:06:21.694Z,3.00
2022-09-20T21:08:23.426Z,2.27
2022-09-20T21:10:25.045Z,2.37
2022-09-20T21:12:26.988Z,2.43
2022-09-20T21:14:29.093Z,3.67
2022-09-20T21:16:34.938Z,2.93
2022-09-20T21:18:37.930Z,2.97
2022-09-20T21:20:39.591Z,4.17
2022-09-20T21:22:41.226Z,3.00
2022-09-20T21:24:42.857Z,3.27
2022-09-20T21:26:46.060Z,2.53
2022-09-20T21:28:53.902Z,3.30
2022-09-20T21:30:59.420Z,2.53
2022-09-20T21:33:03.252Z,3.27
2022-09-20T21:35:05.609Z,3.67
2022-09-20T21:37:07.348Z,2.43
2022-09-20T21:39:09.239Z,4.40
2022-09-20T21:41:19.704Z,3.13
2022-09-20T21:43:22.012Z,1.73
2022-09-20T21:45:24.705Z,3.07
2022-09-20T21:47:26.385Z,4.30
2022-09-20T21:49:28.005Z,2.90
2022-09-20T21:51:30.881Z,2.90
2022-09-20T21:53:33.700Z,2.27
2022-09-20T21:55:35.453Z,3.70
2022-09-20T21:57:37.126Z,2.80
2022-09-20T21:59:40.594Z,3.70
2022-09-20T22:01:42.290Z,2.50
2022-09-20T22:03:49.798Z,3.57
2022-09-20T22:05:51.423Z,3.03
2022-09-20T22:07:56.268Z,3.80
2022-09-20T22:09:57.985Z,2.60
2022-09-20T22:11:59.927Z,3.40
2022-09-20T22:14:01.813Z,2.47
2022-09-20T22:16:07.694Z,3.73
2022-09-20T22:18:09.417Z,3.30
2022-09-20T22:20:13.421Z,2.47
2022-09-20T22:22:15.047Z,2.70
2022-09-20T22:24:17.613Z,3.43
2022-09-20T22:26:21.832Z,4.10
2022-09-20T22:28:23.485Z,2.67
2022-09-20T22:30:25.634Z,3.93
2022-09-20T22:32:27.257Z,2.37
2022-09-20T22:34:33.462Z,5.13
2022-09-20T22:36:37.569Z,4.37
2022-09-20T22:38:39.634Z,4.00
2022-09-20T22:40:52.424Z,3.30
2022-09-20T22:42:58.022Z,3.63
2022-09-20T22:45:00.214Z,3.37
2022-09-20T22:47:01.881Z,4.23
2022-09-20T22:49:08.026Z,3.93
2022-09-20T22:51:15.473Z,3.37
2022-09-20T22:53:17.148Z,2.57
2022-09-20T22:55:18.910Z,2.57
2022-09-20T22:57:20.573Z,2.57
2022-09-20T22:59:22.248Z,3.67
2022-09-20T23:01:29.043Z,3.47
2022-09-20T23:03:30.742Z,2.83
2022-09-20T23:05:33.678Z,4.20
2022-09-20T23:07:35.444Z,3.50
2022-09-20T23:09:37.093Z,4.30
2022-09-20T23:11:41.873Z,2.37
2022-09-20T23:13:45.196Z,5.53
2022-09-20T23:15:46.812Z,5.73
2022-09-20T23:17:48.922Z,3.20
2022-09-20T23:19:50.538Z,4.47
2022-09-20T23:21:52.233Z,2.40
2022-09-20T23:23:58.495Z,3.87
2022-09-20T23:26:11.180Z,4.40
2022-09-20T23:28:12.847Z,3.27
2022-09-20T23:30:14.525Z,4.23
2022-09-20T23:32:16.177Z,3.53
2022-09-20T23:34:17.978Z,4.47
2022-09-20T23:36:20.535Z,4.17
2022-09-20T23:38:22.413Z,3.90
2022-09-20T23:40:24.113Z,3.37
2022-09-20T23:42:25.792Z,3.73
2022-09-20T23:44:28.669Z,4.30
2022-09-20T23:46:30.901Z,3.43
2022-09-20T23:48:33.151Z,3.73
2022-09-20T23:50:34.939Z,3.43
2022-09-20T23:52:36.573Z,3.33
2022-09-20T23:54:38.628Z,4.03
2022-09-20T23:56:41.601Z,3.87
2022-09-20T23:58:44.088Z,3.73
